Terminal Aerodrome Forecast
Issued by NWS Northern Indiana

Home | Current Version | Previous Version | Text Only | Print | Product List | Glossary Off
Versions: 1 2 3 4 5 6 7 8 9 10 11 12 13 14 15 16 17

233
FTUS43 KIWX 051728
TAFFWA
TAF
KFWA 051728Z 0518/0618 21006KT P6SM OVC015
     FM060400 09005KT P6SM BKN025
      TEMPO 0606/0610 3SM BR
     FM061500 07008KT P6SM OVC015=

USA.gov is the U.S. government's official web portal to all federal, state and local government web resources and services.